<?xml version="1.0" encoding="UTF-8"?>
<gpx version="1.1" creator="2bulu-scraper" xmlns="http://www.topografix.com/GPX/1/1">
  <metadata><name>泸州鼓楼山环线</name><desc>source: 2bulu.com trackId=75755694; exported 2026-09-01T14:26:07.195Z</desc>
    <bounds minlat="28.7303213" minlon="105.5668463" maxlat="28.7436103" maxlon="105.5819725"/>
    <link href="https://www.2bulu.com/track/t-a0HIStuhlfrp%252FR2KBg5Tzw%253D%253D.htm"><text>2bulu 源页面</text></link>
  </metadata>
  <wpt lat="28.7412471" lon="105.5668791"><ele>660</ele><name>
        </name></wpt>
  <wpt lat="28.7417564" lon="105.5677593"><ele>680</ele><name>
        </name></wpt>
  <wpt lat="28.7436103" lon="105.5713033"><ele>695</ele><name>
        </name></wpt>
  <wpt lat="28.7433863" lon="105.5716686"><ele>698</ele><name>
        </name></wpt>
  <wpt lat="28.7426729" lon="105.5733397"><ele>692</ele><name>
        </name></wpt>
  <wpt lat="28.7423348" lon="105.573193"><ele>690</ele><name>
        </name></wpt>
  <wpt lat="28.7421388" lon="105.5736943"><ele>685</ele><name>
        </name></wpt>
  <wpt lat="28.7396032" lon="105.5771316"><ele>637</ele><name>
        </name></wpt>
  <wpt lat="28.7408923" lon="105.5802272"><ele>660</ele><name>
        </name></wpt>
  <wpt lat="28.7391131" lon="105.5807005"><ele>677</ele><name>
        </name></wpt>
  <wpt lat="28.7305505" lon="105.573318"><ele>566</ele><name>
        </name></wpt>
  <wpt lat="28.731724" lon="105.5724242"><ele>545</ele><name>
        </name></wpt>
  <wpt lat="28.7325212" lon="105.5724924"><ele>548</ele><name>
        </name></wpt>
  <wpt lat="28.7342498" lon="105.571723"><ele>558</ele><name>
        </name></wpt>
  <wpt lat="28.734639" lon="105.5720491"><ele>562</ele><name>
        </name></wpt>
  <wpt lat="28.7347374" lon="105.5720801"><ele>565</ele><name>
        </name></wpt>
  <wpt lat="28.7364237" lon="105.5723834"><ele>579</ele><name>
        </name></wpt>
  <wpt lat="28.7371412" lon="105.5725706"><ele>588</ele><name>
        </name></wpt>
  <wpt lat="28.7397454" lon="105.5698317"><ele>617</ele><name>
        </name></wpt>
  <trk><name>泸州鼓楼山环线</name>
      <trkseg>
        <trkpt lat="28.740835" lon="105.5668783"><ele>658.6</ele><time>2025-12-06T17:33:04.000Z</time></trkpt>
        <trkpt lat="28.7408899" lon="105.5669541"><ele>658.6</ele><time>2025-12-06T17:33:29.000Z</time></trkpt>
        <trkpt lat="28.7409794" lon="105.5669488"><ele>657.95</ele><time>2025-12-06T17:33:39.000Z</time></trkpt>
        <trkpt lat="28.7410776" lon="105.5669811"><ele>657.97</ele><time>2025-12-06T17:33:49.000Z</time></trkpt>
        <trkpt lat="28.7411769" lon="105.5669574"><ele>658.67</ele><time>2025-12-06T17:33:59.000Z</time></trkpt>
        <trkpt lat="28.7412471" lon="105.5668791"><ele>659.85</ele><time>2025-12-06T17:34:11.000Z</time></trkpt>
        <trkpt lat="28.7411983" lon="105.5669683"><ele>660</ele><time>2025-12-06T17:37:37.000Z</time></trkpt>
        <trkpt lat="28.7411683" lon="105.5670783"><ele>658.28</ele><time>2025-12-06T17:37:47.000Z</time></trkpt>
        <trkpt lat="28.7411919" lon="105.5671841"><ele>657.38</ele><time>2025-12-06T17:38:07.000Z</time></trkpt>
        <trkpt lat="28.7412469" lon="105.5672711"><ele>658.42</ele><time>2025-12-06T17:38:53.000Z</time></trkpt>
        <trkpt lat="28.7412981" lon="105.5673585"><ele>662.37</ele><time>2025-12-06T17:39:29.000Z</time></trkpt>
        <trkpt lat="28.7413538" lon="105.5674504"><ele>668.15</ele><time>2025-12-06T17:39:47.000Z</time></trkpt>
        <trkpt lat="28.7414267" lon="105.567535"><ele>672.86</ele><time>2025-12-06T17:41:13.000Z</time></trkpt>
        <trkpt lat="28.7415067" lon="105.5676"><ele>675.59</ele><time>2025-12-06T17:41:25.000Z</time></trkpt>
        <trkpt lat="28.7415965" lon="105.5676438"><ele>676.88</ele><time>2025-12-06T17:41:37.000Z</time></trkpt>
        <trkpt lat="28.7416843" lon="105.5676878"><ele>678.7</ele><time>2025-12-06T17:41:47.000Z</time></trkpt>
        <trkpt lat="28.7417564" lon="105.5677593"><ele>679.99</ele><time>2025-12-06T17:41:59.000Z</time></trkpt>
        <trkpt lat="28.7418333" lon="105.56784"><ele>680.08</ele><time>2025-12-06T17:44:09.000Z</time></trkpt>
        <trkpt lat="28.741875" lon="105.5679333"><ele>678.5</ele><time>2025-12-06T17:44:17.000Z</time></trkpt>
        <trkpt lat="28.7419068" lon="105.5680506"><ele>677.42</ele><time>2025-12-06T17:44:27.000Z</time></trkpt>
        <trkpt lat="28.7419471" lon="105.568158"><ele>676.9</ele><time>2025-12-06T17:44:39.000Z</time></trkpt>
        <trkpt lat="28.7419976" lon="105.5682487"><ele>678.1</ele><time>2025-12-06T17:44:53.000Z</time></trkpt>
        <trkpt lat="28.7420554" lon="105.5683332"><ele>680.12</ele><time>2025-12-06T17:45:07.000Z</time></trkpt>
        <trkpt lat="28.7421102" lon="105.5684177"><ele>681.49</ele><time>2025-12-06T17:45:19.000Z</time></trkpt>
        <trkpt lat="28.7421419" lon="105.5685204"><ele>682.83</ele><time>2025-12-06T17:45:37.000Z</time></trkpt>
        <trkpt lat="28.7421761" lon="105.5686189"><ele>685.05</ele><time>2025-12-06T17:45:51.000Z</time></trkpt>
        <trkpt lat="28.7421862" lon="105.5687352"><ele>687.35</ele><time>2025-12-06T17:46:19.000Z</time></trkpt>
        <trkpt lat="28.7422016" lon="105.5688566"><ele>689.48</ele><time>2025-12-06T17:46:29.000Z</time></trkpt>
        <trkpt lat="28.7422193" lon="105.5689662"><ele>690.69</ele><time>2025-12-06T17:46:39.000Z</time></trkpt>
        <trkpt lat="28.7422484" lon="105.5690894"><ele>691.21</ele><time>2025-12-06T17:47:19.000Z</time></trkpt>
        <trkpt lat="28.7422618" lon="105.5692041"><ele>691.98</ele><time>2025-12-06T17:47:29.000Z</time></trkpt>
        <trkpt lat="28.7422739" lon="105.5693188"><ele>692.46</ele><time>2025-12-06T17:47:45.000Z</time></trkpt>
        <trkpt lat="28.7422887" lon="105.5694323"><ele>692.69</ele><time>2025-12-06T17:47:55.000Z</time></trkpt>
        <trkpt lat="28.742321" lon="105.5695354"><ele>693.13</ele><time>2025-12-06T17:48:11.000Z</time></trkpt>
        <trkpt lat="28.7423448" lon="105.5696411"><ele>693.5</ele><time>2025-12-06T17:48:21.000Z</time></trkpt>
        <trkpt lat="28.7423646" lon="105.5697484"><ele>693.24</ele><time>2025-12-06T17:48:33.000Z</time></trkpt>
        <trkpt lat="28.7423766" lon="105.5698602"><ele>692.88</ele><time>2025-12-06T17:48:45.000Z</time></trkpt>
        <trkpt lat="28.7423684" lon="105.5699649"><ele>693.41</ele><time>2025-12-06T17:48:55.000Z</time></trkpt>
        <trkpt lat="28.7423296" lon="105.5700593"><ele>694.13</ele><time>2025-12-06T17:49:05.000Z</time></trkpt>
        <trkpt lat="28.7423561" lon="105.5701576"><ele>695.11</ele><time>2025-12-06T17:49:15.000Z</time></trkpt>
        <trkpt lat="28.7423952" lon="105.5702644"><ele>695.88</ele><time>2025-12-06T17:49:33.000Z</time></trkpt>
        <trkpt lat="28.742469" lon="105.5703331"><ele>695.93</ele><time>2025-12-06T17:49:41.000Z</time></trkpt>
        <trkpt lat="28.7425437" lon="105.5704"><ele>695.53</ele><time>2025-12-06T17:49:49.000Z</time></trkpt>
        <trkpt lat="28.742622" lon="105.5704769"><ele>694.83</ele><time>2025-12-06T17:49:59.000Z</time></trkpt>
        <trkpt lat="28.7426926" lon="105.5705498"><ele>694.09</ele><time>2025-12-06T17:50:13.000Z</time></trkpt>
        <trkpt lat="28.742778" lon="105.5705962"><ele>695.12</ele><time>2025-12-06T17:50:25.000Z</time></trkpt>
        <trkpt lat="28.7428712" lon="105.5706181"><ele>696.66</ele><time>2025-12-06T17:50:35.000Z</time></trkpt>
        <trkpt lat="28.7429402" lon="105.5706816"><ele>697.67</ele><time>2025-12-06T17:50:55.000Z</time></trkpt>
        <trkpt lat="28.7429718" lon="105.5707786"><ele>697.94</ele><time>2025-12-06T17:51:03.000Z</time></trkpt>
        <trkpt lat="28.7430106" lon="105.5708756"><ele>697.62</ele><time>2025-12-06T17:51:11.000Z</time></trkpt>
        <trkpt lat="28.7430684" lon="105.5709575"><ele>696.92</ele><time>2025-12-06T17:51:25.000Z</time></trkpt>
        <trkpt lat="28.7431277" lon="105.5710502"><ele>695.37</ele><time>2025-12-06T17:51:39.000Z</time></trkpt>
        <trkpt lat="28.7431971" lon="105.571122"><ele>694</ele><time>2025-12-06T17:51:51.000Z</time></trkpt>
        <trkpt lat="28.7432961" lon="105.5711504"><ele>693.27</ele><time>2025-12-06T17:52:01.000Z</time></trkpt>
        <trkpt lat="28.7434052" lon="105.5711628"><ele>693.07</ele><time>2025-12-06T17:52:11.000Z</time></trkpt>
        <trkpt lat="28.743515" lon="105.5711617"><ele>693.08</ele><time>2025-12-06T17:54:45.000Z</time></trkpt>
        <trkpt lat="28.7436" lon="105.571205"><ele>692.32</ele><time>2025-12-06T17:55:01.000Z</time></trkpt>
        <trkpt lat="28.7436103" lon="105.5713033"><ele>692.87</ele><time>2025-12-06T17:55:11.000Z</time></trkpt>
        <trkpt lat="28.7435983" lon="105.5714075"><ele>693.96</ele><time>2025-12-06T17:55:21.000Z</time></trkpt>
        <trkpt lat="28.7435514" lon="105.5715089"><ele>695.83</ele><time>2025-12-06T17:55:31.000Z</time></trkpt>
        <trkpt lat="28.7434835" lon="105.5716082"><ele>697.36</ele><time>2025-12-06T17:55:41.000Z</time></trkpt>
        <trkpt lat="28.7433863" lon="105.5716686"><ele>698.11</ele><time>2025-12-06T17:55:51.000Z</time></trkpt>
        <trkpt lat="28.7432913" lon="105.5717082"><ele>697.85</ele><time>2025-12-06T17:56:39.000Z</time></trkpt>
        <trkpt lat="28.74319" lon="105.5717567"><ele>699.68</ele><time>2025-12-06T17:57:53.000Z</time></trkpt>
        <trkpt lat="28.7431233" lon="105.5718267"><ele>700.81</ele><time>2025-12-06T17:58:03.000Z</time></trkpt>
        <trkpt lat="28.7430623" lon="105.5719094"><ele>701.45</ele><time>2025-12-06T17:58:15.000Z</time></trkpt>
        <trkpt lat="28.7430396" lon="105.572011"><ele>702.03</ele><time>2025-12-06T17:58:25.000Z</time></trkpt>
        <trkpt lat="28.7430339" lon="105.5721262"><ele>702.02</ele><time>2025-12-06T17:58:47.000Z</time></trkpt>
        <trkpt lat="28.7430456" lon="105.572248"><ele>702.1</ele><time>2025-12-06T17:58:59.000Z</time></trkpt>
        <trkpt lat="28.7430342" lon="105.5723584"><ele>702.66</ele><time>2025-12-06T17:59:07.000Z</time></trkpt>
        <trkpt lat="28.7430248" lon="105.5724672"><ele>703.45</ele><time>2025-12-06T17:59:19.000Z</time></trkpt>
        <trkpt lat="28.7430451" lon="105.5725755"><ele>703.34</ele><time>2025-12-06T17:59:35.000Z</time></trkpt>
        <trkpt lat="28.7430874" lon="105.5726774"><ele>701.3</ele><time>2025-12-06T17:59:53.000Z</time></trkpt>
        <trkpt lat="28.7431412" lon="105.5727695"><ele>698.68</ele><time>2025-12-06T18:00:11.000Z</time></trkpt>
        <trkpt lat="28.7431783" lon="105.5728822"><ele>695.33</ele><time>2025-12-06T18:00:25.000Z</time></trkpt>
        <trkpt lat="28.7431637" lon="105.5729932"><ele>692.74</ele><time>2025-12-06T18:00:37.000Z</time></trkpt>
        <trkpt lat="28.743104" lon="105.5730778"><ele>691.3</ele><time>2025-12-06T18:00:47.000Z</time></trkpt>
        <trkpt lat="28.7430281" lon="105.5731474"><ele>691.3</ele><time>2025-12-06T18:00:57.000Z</time></trkpt>
        <trkpt lat="28.7429352" lon="105.5732291"><ele>691.9</ele><time>2025-12-06T18:01:07.000Z</time></trkpt>
        <trkpt lat="28.7428329" lon="105.573263"><ele>692.72</ele><time>2025-12-06T18:01:17.000Z</time></trkpt>
        <trkpt lat="28.7427296" lon="105.5732656"><ele>693.01</ele><time>2025-12-06T18:01:27.000Z</time></trkpt>
        <trkpt lat="28.7426729" lon="105.5733397"><ele>693.35</ele><time>2025-12-06T18:01:39.000Z</time></trkpt>
        <trkpt lat="28.7425883" lon="105.5733267"><ele>692.55</ele><time>2025-12-06T18:03:35.000Z</time></trkpt>
        <trkpt lat="28.742535" lon="105.5732433"><ele>690.68</ele><time>2025-12-06T18:03:51.000Z</time></trkpt>
        <trkpt lat="28.7426001" lon="105.5731699"><ele>690.09</ele><time>2025-12-06T18:04:03.000Z</time></trkpt>
        <trkpt lat="28.7425872" lon="105.573066"><ele>689.79</ele><time>2025-12-06T18:04:13.000Z</time></trkpt>
        <trkpt lat="28.7425015" lon="105.573043"><ele>689.92</ele><time>2025-12-06T18:04:25.000Z</time></trkpt>
        <trkpt lat="28.7424054" lon="105.5730973"><ele>689.4</ele><time>2025-12-06T18:04:35.000Z</time></trkpt>
        <trkpt lat="28.7423348" lon="105.573193"><ele>689.31</ele><time>2025-12-06T18:04:45.000Z</time></trkpt>
        <trkpt lat="28.7423117" lon="105.5732362"><ele>689.74</ele><time>2025-12-06T18:04:57.000Z</time></trkpt>
        <trkpt lat="28.7422817" lon="105.5733267"><ele>689.85</ele><time>2025-12-06T18:07:41.000Z</time></trkpt>
        <trkpt lat="28.742225" lon="105.5734083"><ele>689.31</ele><time>2025-12-06T18:09:05.000Z</time></trkpt>
        <trkpt lat="28.74218" lon="105.573505"><ele>689.18</ele><time>2025-12-06T18:09:45.000Z</time></trkpt>
        <trkpt lat="28.7421237" lon="105.5735974"><ele>688.54</ele><time>2025-12-06T18:10:01.000Z</time></trkpt>
        <trkpt lat="28.7421388" lon="105.5736943"><ele>687.84</ele><time>2025-12-06T18:10:13.000Z</time></trkpt>
        <trkpt lat="28.7421146" lon="105.5736482"><ele>686.75</ele><time>2025-12-06T18:11:07.000Z</time></trkpt>
        <trkpt lat="28.7420731" lon="105.5736996"><ele>687.76</ele><time>2025-12-06T18:11:47.000Z</time></trkpt>
        <trkpt lat="28.7419917" lon="105.5737098"><ele>687</ele><time>2025-12-06T18:12:03.000Z</time></trkpt>
        <trkpt lat="28.7418891" lon="105.5737264"><ele>686.27</ele><time>2025-12-06T18:12:19.000Z</time></trkpt>
        <trkpt lat="28.7417955" lon="105.5737746"><ele>685.16</ele><time>2025-12-06T18:12:33.000Z</time></trkpt>
        <trkpt lat="28.7417064" lon="105.5738222"><ele>683.76</ele><time>2025-12-06T18:12:51.000Z</time></trkpt>
        <trkpt lat="28.7416074" lon="105.5738506"><ele>680.94</ele><time>2025-12-06T18:13:09.000Z</time></trkpt>
        <trkpt lat="28.74153" lon="105.5739177"><ele>677.61</ele><time>2025-12-06T18:13:31.000Z</time></trkpt>
        <trkpt lat="28.7414461" lon="105.5739669"><ele>674.42</ele><time>2025-12-06T18:13:43.000Z</time></trkpt>
        <trkpt lat="28.7413503" lon="105.5739753"><ele>671.1</ele><time>2025-12-06T18:13:55.000Z</time></trkpt>
        <trkpt lat="28.7412488" lon="105.5739525"><ele>668</ele><time>2025-12-06T18:14:05.000Z</time></trkpt>
        <trkpt lat="28.7411509" lon="105.5739269"><ele>664.73</ele><time>2025-12-06T18:14:19.000Z</time></trkpt>
        <trkpt lat="28.7410523" lon="105.5739194"><ele>661.19</ele><time>2025-12-06T18:14:35.000Z</time></trkpt>
        <trkpt lat="28.74096" lon="105.573894"><ele>658.66</ele><time>2025-12-06T18:14:51.000Z</time></trkpt>
        <trkpt lat="28.740875" lon="105.5738569"><ele>657.04</ele><time>2025-12-06T18:15:05.000Z</time></trkpt>
        <trkpt lat="28.7407837" lon="105.5738026"><ele>655.3</ele><time>2025-12-06T18:15:19.000Z</time></trkpt>
        <trkpt lat="28.7406857" lon="105.5737821"><ele>653.75</ele><time>2025-12-06T18:15:29.000Z</time></trkpt>
        <trkpt lat="28.7405741" lon="105.5737554"><ele>652.83</ele><time>2025-12-06T18:15:41.000Z</time></trkpt>
        <trkpt lat="28.7404692" lon="105.5737492"><ele>652.43</ele><time>2025-12-06T18:15:55.000Z</time></trkpt>
        <trkpt lat="28.7403689" lon="105.5737453"><ele>651.94</ele><time>2025-12-06T18:16:07.000Z</time></trkpt>
        <trkpt lat="28.7402767" lon="105.5737284"><ele>651.67</ele><time>2025-12-06T18:16:21.000Z</time></trkpt>
        <trkpt lat="28.7401836" lon="105.5737286"><ele>650.56</ele><time>2025-12-06T18:16:39.000Z</time></trkpt>
        <trkpt lat="28.7400733" lon="105.5737253"><ele>647.48</ele><time>2025-12-06T18:16:51.000Z</time></trkpt>
        <trkpt lat="28.739979" lon="105.5737738"><ele>644.18</ele><time>2025-12-06T18:17:09.000Z</time></trkpt>
        <trkpt lat="28.7398876" lon="105.5738197"><ele>641.61</ele><time>2025-12-06T18:17:23.000Z</time></trkpt>
        <trkpt lat="28.7398081" lon="105.5738855"><ele>639.32</ele><time>2025-12-06T18:17:37.000Z</time></trkpt>
        <trkpt lat="28.739794" lon="105.5739897"><ele>637.42</ele><time>2025-12-06T18:17:47.000Z</time></trkpt>
        <trkpt lat="28.7398641" lon="105.5740485"><ele>636.21</ele><time>2025-12-06T18:17:59.000Z</time></trkpt>
        <trkpt lat="28.7399561" lon="105.5741251"><ele>636.29</ele><time>2025-12-06T18:18:11.000Z</time></trkpt>
        <trkpt lat="28.7400255" lon="105.5742255"><ele>636.6</ele><time>2025-12-06T18:18:25.000Z</time></trkpt>
        <trkpt lat="28.7400956" lon="105.5743089"><ele>637.93</ele><time>2025-12-06T18:18:35.000Z</time></trkpt>
        <trkpt lat="28.74013" lon="105.5744333"><ele>639.94</ele><time>2025-12-06T18:20:11.000Z</time></trkpt>
        <trkpt lat="28.7401233" lon="105.57454"><ele>642.03</ele><time>2025-12-06T18:20:23.000Z</time></trkpt>
        <trkpt lat="28.7400941" lon="105.5746467"><ele>643.05</ele><time>2025-12-06T18:20:43.000Z</time></trkpt>
        <trkpt lat="28.7400339" lon="105.5747289"><ele>642.99</ele><time>2025-12-06T18:20:59.000Z</time></trkpt>
        <trkpt lat="28.7399425" lon="105.5747922"><ele>642.17</ele><time>2025-12-06T18:21:11.000Z</time></trkpt>
        <trkpt lat="28.7398336" lon="105.5748344"><ele>640.72</ele><time>2025-12-06T18:21:21.000Z</time></trkpt>
        <trkpt lat="28.7397336" lon="105.5748755"><ele>639.25</ele><time>2025-12-06T18:21:40.000Z</time></trkpt>
        <trkpt lat="28.7396567" lon="105.5749608"><ele>639.19</ele><time>2025-12-06T18:22:02.000Z</time></trkpt>
        <trkpt lat="28.7396081" lon="105.575056"><ele>640.91</ele><time>2025-12-06T18:22:16.000Z</time></trkpt>
        <trkpt lat="28.7395751" lon="105.5751555"><ele>642.46</ele><time>2025-12-06T18:22:30.000Z</time></trkpt>
        <trkpt lat="28.7395284" lon="105.57525"><ele>642.65</ele><time>2025-12-06T18:22:38.000Z</time></trkpt>
        <trkpt lat="28.7394936" lon="105.5753517"><ele>642.37</ele><time>2025-12-06T18:22:46.000Z</time></trkpt>
        <trkpt lat="28.739449" lon="105.5754508"><ele>642.17</ele><time>2025-12-06T18:22:56.000Z</time></trkpt>
        <trkpt lat="28.7394427" lon="105.5755672"><ele>640.72</ele><time>2025-12-06T18:23:08.000Z</time></trkpt>
        <trkpt lat="28.7394442" lon="105.5756784"><ele>639.72</ele><time>2025-12-06T18:23:18.000Z</time></trkpt>
        <trkpt lat="28.7394278" lon="105.5757818"><ele>640.01</ele><time>2025-12-06T18:23:26.000Z</time></trkpt>
        <trkpt lat="28.7393795" lon="105.5758757"><ele>640.61</ele><time>2025-12-06T18:23:36.000Z</time></trkpt>
        <trkpt lat="28.7393059" lon="105.5759553"><ele>640.78</ele><time>2025-12-06T18:23:46.000Z</time></trkpt>
        <trkpt lat="28.7392112" lon="105.5760014"><ele>640.4</ele><time>2025-12-06T18:23:56.000Z</time></trkpt>
        <trkpt lat="28.7391199" lon="105.5760565"><ele>640.62</ele><time>2025-12-06T18:24:06.000Z</time></trkpt>
        <trkpt lat="28.7390361" lon="105.5761161"><ele>641.34</ele><time>2025-12-06T18:24:18.000Z</time></trkpt>
        <trkpt lat="28.7389447" lon="105.5761756"><ele>642.05</ele><time>2025-12-06T18:24:30.000Z</time></trkpt>
        <trkpt lat="28.7388495" lon="105.5762015"><ele>641.17</ele><time>2025-12-06T18:24:40.000Z</time></trkpt>
        <trkpt lat="28.7387585" lon="105.5762326"><ele>640.15</ele><time>2025-12-06T18:24:52.000Z</time></trkpt>
        <trkpt lat="28.7386907" lon="105.5763078"><ele>639.4</ele><time>2025-12-06T18:25:02.000Z</time></trkpt>
        <trkpt lat="28.7386991" lon="105.5764034"><ele>638.37</ele><time>2025-12-06T18:25:12.000Z</time></trkpt>
        <trkpt lat="28.7387791" lon="105.5764807"><ele>637.65</ele><time>2025-12-06T18:25:22.000Z</time></trkpt>
        <trkpt lat="28.7388867" lon="105.5764877"><ele>638.83</ele><time>2025-12-06T18:25:32.000Z</time></trkpt>
        <trkpt lat="28.7389917" lon="105.5764927"><ele>639.64</ele><time>2025-12-06T18:25:42.000Z</time></trkpt>
        <trkpt lat="28.7390794" lon="105.5765446"><ele>639.75</ele><time>2025-12-06T18:25:52.000Z</time></trkpt>
        <trkpt lat="28.7391734" lon="105.5765894"><ele>639.21</ele><time>2025-12-06T18:26:24.000Z</time></trkpt>
        <trkpt lat="28.7392643" lon="105.5766239"><ele>639.9</ele><time>2025-12-06T18:26:32.000Z</time></trkpt>
        <trkpt lat="28.7393548" lon="105.5766805"><ele>640.28</ele><time>2025-12-06T18:26:48.000Z</time></trkpt>
        <trkpt lat="28.7394374" lon="105.5767331"><ele>641.07</ele><time>2025-12-06T18:27:02.000Z</time></trkpt>
        <trkpt lat="28.7395198" lon="105.5768069"><ele>640.44</ele><time>2025-12-06T18:27:18.000Z</time></trkpt>
        <trkpt lat="28.7395648" lon="105.5769095"><ele>639.26</ele><time>2025-12-06T18:27:30.000Z</time></trkpt>
        <trkpt lat="28.7395976" lon="105.5770213"><ele>638.2</ele><time>2025-12-06T18:27:46.000Z</time></trkpt>
        <trkpt lat="28.7396032" lon="105.5771316"><ele>637.6</ele><time>2025-12-06T18:27:58.000Z</time></trkpt>
        <trkpt lat="28.7395956" lon="105.5772385"><ele>637.51</ele><time>2025-12-06T18:28:48.000Z</time></trkpt>
        <trkpt lat="28.7395668" lon="105.5773495"><ele>638.32</ele><time>2025-12-06T18:29:08.000Z</time></trkpt>
        <trkpt lat="28.7395474" lon="105.5774668"><ele>639.43</ele><time>2025-12-06T18:29:24.000Z</time></trkpt>
        <trkpt lat="28.7395937" lon="105.5775509"><ele>639.2</ele><time>2025-12-06T18:29:38.000Z</time></trkpt>
        <trkpt lat="28.739705" lon="105.5775367"><ele>638.26</ele><time>2025-12-06T18:30:44.000Z</time></trkpt>
        <trkpt lat="28.7398067" lon="105.5775383"><ele>636.64</ele><time>2025-12-06T18:30:56.000Z</time></trkpt>
        <trkpt lat="28.7398999" lon="105.5775597"><ele>635.76</ele><time>2025-12-06T18:31:12.000Z</time></trkpt>
        <trkpt lat="28.7399533" lon="105.577655"><ele>636.64</ele><time>2025-12-06T18:32:24.000Z</time></trkpt>
        <trkpt lat="28.740015" lon="105.5777317"><ele>638</ele><time>2025-12-06T18:32:42.000Z</time></trkpt>
        <trkpt lat="28.7400823" lon="105.5778112"><ele>640.06</ele><time>2025-12-06T18:33:04.000Z</time></trkpt>
        <trkpt lat="28.7401416" lon="105.5778937"><ele>642.83</ele><time>2025-12-06T18:33:18.000Z</time></trkpt>
        <trkpt lat="28.7401846" lon="105.5779936"><ele>644.97</ele><time>2025-12-06T18:33:28.000Z</time></trkpt>
        <trkpt lat="28.7402282" lon="105.5780932"><ele>646.66</ele><time>2025-12-06T18:33:40.000Z</time></trkpt>
        <trkpt lat="28.740273" lon="105.5781856"><ele>647.62</ele><time>2025-12-06T18:33:52.000Z</time></trkpt>
        <trkpt lat="28.7403287" lon="105.5782747"><ele>648.17</ele><time>2025-12-06T18:34:02.000Z</time></trkpt>
        <trkpt lat="28.74039" lon="105.5783565"><ele>648.79</ele><time>2025-12-06T18:34:26.000Z</time></trkpt>
        <trkpt lat="28.7404565" lon="105.5784321"><ele>650.64</ele><time>2025-12-06T18:34:50.000Z</time></trkpt>
        <trkpt lat="28.7404655" lon="105.5785297"><ele>651.96</ele><time>2025-12-06T18:35:16.000Z</time></trkpt>
        <trkpt lat="28.7404579" lon="105.578646"><ele>654.34</ele><time>2025-12-06T18:35:40.000Z</time></trkpt>
        <trkpt lat="28.7404509" lon="105.5787632"><ele>657.16</ele><time>2025-12-06T18:35:52.000Z</time></trkpt>
        <trkpt lat="28.7404665" lon="105.5788831"><ele>659.63</ele><time>2025-12-06T18:36:04.000Z</time></trkpt>
        <trkpt lat="28.7404666" lon="105.5789956"><ele>660.91</ele><time>2025-12-06T18:36:14.000Z</time></trkpt>
        <trkpt lat="28.7404793" lon="105.579106"><ele>661.59</ele><time>2025-12-06T18:36:26.000Z</time></trkpt>
        <trkpt lat="28.7405058" lon="105.5792145"><ele>660.74</ele><time>2025-12-06T18:36:38.000Z</time></trkpt>
        <trkpt lat="28.7405358" lon="105.5793199"><ele>659.56</ele><time>2025-12-06T18:36:52.000Z</time></trkpt>
        <trkpt lat="28.7405735" lon="105.5794182"><ele>659.88</ele><time>2025-12-06T18:37:02.000Z</time></trkpt>
        <trkpt lat="28.7405483" lon="105.5795129"><ele>660.36</ele><time>2025-12-06T18:37:16.000Z</time></trkpt>
        <trkpt lat="28.7404842" lon="105.5796005"><ele>660.33</ele><time>2025-12-06T18:37:34.000Z</time></trkpt>
        <trkpt lat="28.7404741" lon="105.5797061"><ele>660.19</ele><time>2025-12-06T18:37:48.000Z</time></trkpt>
        <trkpt lat="28.7404849" lon="105.5798126"><ele>660.37</ele><time>2025-12-06T18:37:58.000Z</time></trkpt>
        <trkpt lat="28.7405438" lon="105.5798988"><ele>660.77</ele><time>2025-12-06T18:38:10.000Z</time></trkpt>
        <trkpt lat="28.7406323" lon="105.5799459"><ele>661.08</ele><time>2025-12-06T18:38:20.000Z</time></trkpt>
        <trkpt lat="28.7407068" lon="105.5799745"><ele>661.56</ele><time>2025-12-06T18:38:42.000Z</time></trkpt>
        <trkpt lat="28.7407867" lon="105.5800367"><ele>660.68</ele><time>2025-12-06T18:47:58.000Z</time></trkpt>
        <trkpt lat="28.7408367" lon="105.5801333"><ele>659.48</ele><time>2025-12-06T18:48:10.000Z</time></trkpt>
        <trkpt lat="28.7408923" lon="105.5802272"><ele>659.15</ele><time>2025-12-06T18:48:24.000Z</time></trkpt>
        <trkpt lat="28.7409605" lon="105.5803102"><ele>659.34</ele><time>2025-12-06T18:49:22.000Z</time></trkpt>
        <trkpt lat="28.741044" lon="105.5803849"><ele>657.95</ele><time>2025-12-06T18:49:34.000Z</time></trkpt>
        <trkpt lat="28.7411225" lon="105.5804594"><ele>656.98</ele><time>2025-12-06T18:49:44.000Z</time></trkpt>
        <trkpt lat="28.7411279" lon="105.5805533"><ele>656.3</ele><time>2025-12-06T18:49:58.000Z</time></trkpt>
        <trkpt lat="28.7410974" lon="105.5806511"><ele>656.64</ele><time>2025-12-06T18:50:16.000Z</time></trkpt>
        <trkpt lat="28.7410838" lon="105.5807569"><ele>658.48</ele><time>2025-12-06T18:50:30.000Z</time></trkpt>
        <trkpt lat="28.7410717" lon="105.5808651"><ele>660.12</ele><time>2025-12-06T18:50:50.000Z</time></trkpt>
        <trkpt lat="28.7410299" lon="105.5809595"><ele>660.54</ele><time>2025-12-06T18:51:06.000Z</time></trkpt>
        <trkpt lat="28.7409779" lon="105.5810608"><ele>659.75</ele><time>2025-12-06T18:51:18.000Z</time></trkpt>
        <trkpt lat="28.7409453" lon="105.5811652"><ele>657.79</ele><time>2025-12-06T18:51:28.000Z</time></trkpt>
        <trkpt lat="28.7408964" lon="105.5812643"><ele>655.6</ele><time>2025-12-06T18:51:50.000Z</time></trkpt>
        <trkpt lat="28.7408612" lon="105.5813713"><ele>653.45</ele><time>2025-12-06T18:52:02.000Z</time></trkpt>
        <trkpt lat="28.7407994" lon="105.5814624"><ele>652.35</ele><time>2025-12-06T18:52:16.000Z</time></trkpt>
        <trkpt lat="28.7407124" lon="105.5815187"><ele>652.72</ele><time>2025-12-06T18:52:28.000Z</time></trkpt>
        <trkpt lat="28.7406188" lon="105.5815016"><ele>653.66</ele><time>2025-12-06T18:52:50.000Z</time></trkpt>
        <trkpt lat="28.7405348" lon="105.5814286"><ele>656.82</ele><time>2025-12-06T18:52:58.000Z</time></trkpt>
        <trkpt lat="28.7404758" lon="105.5814694"><ele>658.4</ele><time>2025-12-06T18:53:12.000Z</time></trkpt>
        <trkpt lat="28.7404876" lon="105.5815613"><ele>659.69</ele><time>2025-12-06T18:53:30.000Z</time></trkpt>
        <trkpt lat="28.7404752" lon="105.5816664"><ele>660.9</ele><time>2025-12-06T18:53:48.000Z</time></trkpt>
        <trkpt lat="28.740423" lon="105.5817629"><ele>662.1</ele><time>2025-12-06T18:54:12.000Z</time></trkpt>
        <trkpt lat="28.7404066" lon="105.5818696"><ele>662.92</ele><time>2025-12-06T18:54:28.000Z</time></trkpt>
        <trkpt lat="28.7403799" lon="105.5819725"><ele>664.2</ele><time>2025-12-06T18:54:50.000Z</time></trkpt>
        <trkpt lat="28.7403683" lon="105.5818583"><ele>666.27</ele><time>2025-12-06T18:56:02.000Z</time></trkpt>
        <trkpt lat="28.7403833" lon="105.5817517"><ele>668.82</ele><time>2025-12-06T18:56:14.000Z</time></trkpt>
        <trkpt lat="28.7403462" lon="105.5816394"><ele>670.36</ele><time>2025-12-06T18:56:24.000Z</time></trkpt>
        <trkpt lat="28.7402714" lon="105.5815724"><ele>671.37</ele><time>2025-12-06T18:56:32.000Z</time></trkpt>
        <trkpt lat="28.7401634" lon="105.5815546"><ele>672.07</ele><time>2025-12-06T18:56:44.000Z</time></trkpt>
        <trkpt lat="28.7400602" lon="105.5815646"><ele>672.94</ele><time>2025-12-06T18:56:54.000Z</time></trkpt>
        <trkpt lat="28.7399608" lon="105.5815974"><ele>674.77</ele><time>2025-12-06T18:57:08.000Z</time></trkpt>
        <trkpt lat="28.7398658" lon="105.5816274"><ele>677.8</ele><time>2025-12-06T18:57:20.000Z</time></trkpt>
        <trkpt lat="28.7397817" lon="105.5815868"><ele>680.55</ele><time>2025-12-06T18:57:32.000Z</time></trkpt>
        <trkpt lat="28.7396931" lon="105.5815564"><ele>680.96</ele><time>2025-12-06T18:57:40.000Z</time></trkpt>
        <trkpt lat="28.7395973" lon="105.5815353"><ele>679.47</ele><time>2025-12-06T18:57:50.000Z</time></trkpt>
        <trkpt lat="28.739505" lon="105.5815538"><ele>677.81</ele><time>2025-12-06T18:57:58.000Z</time></trkpt>
        <trkpt lat="28.7394357" lon="105.5816268"><ele>676.64</ele><time>2025-12-06T18:58:08.000Z</time></trkpt>
        <trkpt lat="28.7393561" lon="105.5817013"><ele>675.85</ele><time>2025-12-06T18:58:18.000Z</time></trkpt>
        <trkpt lat="28.7393052" lon="105.5816445"><ele>675.83</ele><time>2025-12-06T18:58:32.000Z</time></trkpt>
        <trkpt lat="28.7392885" lon="105.5815287"><ele>676.46</ele><time>2025-12-06T18:58:44.000Z</time></trkpt>
        <trkpt lat="28.7393039" lon="105.5814036"><ele>675.88</ele><time>2025-12-06T18:58:56.000Z</time></trkpt>
        <trkpt lat="28.7393121" lon="105.581274"><ele>675.33</ele><time>2025-12-06T18:59:04.000Z</time></trkpt>
        <trkpt lat="28.7393132" lon="105.581148"><ele>675.01</ele><time>2025-12-06T18:59:14.000Z</time></trkpt>
        <trkpt lat="28.7393028" lon="105.5810255"><ele>674.97</ele><time>2025-12-06T18:59:24.000Z</time></trkpt>
        <trkpt lat="28.7392554" lon="105.5809104"><ele>674.81</ele><time>2025-12-06T18:59:32.000Z</time></trkpt>
        <trkpt lat="28.7391899" lon="105.5808221"><ele>674.72</ele><time>2025-12-06T18:59:46.000Z</time></trkpt>
        <trkpt lat="28.7391101" lon="105.5807584"><ele>675.83</ele><time>2025-12-06T18:59:54.000Z</time></trkpt>
        <trkpt lat="28.7390335" lon="105.5806984"><ele>677.49</ele><time>2025-12-06T19:00:02.000Z</time></trkpt>
        <trkpt lat="28.7389488" lon="105.5806614"><ele>679.56</ele><time>2025-12-06T19:00:12.000Z</time></trkpt>
        <trkpt lat="28.7389258" lon="105.5806639"><ele>681.81</ele><time>2025-12-06T19:00:18.000Z</time></trkpt>
        <trkpt lat="28.7390027" lon="105.5806864"><ele>682.8</ele><time>2025-12-06T19:00:58.000Z</time></trkpt>
        <trkpt lat="28.7391131" lon="105.5807005"><ele>680.69</ele><time>2025-12-06T19:01:06.000Z</time></trkpt>
        <trkpt lat="28.7391912" lon="105.580631"><ele>678.97</ele><time>2025-12-06T19:01:26.000Z</time></trkpt>
        <trkpt lat="28.7392119" lon="105.5805238"><ele>677.74</ele><time>2025-12-06T19:01:38.000Z</time></trkpt>
        <trkpt lat="28.7392167" lon="105.5804042"><ele>676.65</ele><time>2025-12-06T19:01:48.000Z</time></trkpt>
        <trkpt lat="28.7392407" lon="105.5802857"><ele>675.51</ele><time>2025-12-06T19:02:14.000Z</time></trkpt>
        <trkpt lat="28.7392802" lon="105.5801766"><ele>673.87</ele><time>2025-12-06T19:02:26.000Z</time></trkpt>
        <trkpt lat="28.7393055" lon="105.5800638"><ele>671.9</ele><time>2025-12-06T19:02:38.000Z</time></trkpt>
        <trkpt lat="28.7392785" lon="105.5799661"><ele>670.74</ele><time>2025-12-06T19:02:48.000Z</time></trkpt>
        <trkpt lat="28.7392577" lon="105.5798493"><ele>669.86</ele><time>2025-12-06T19:03:12.000Z</time></trkpt>
        <trkpt lat="28.7392348" lon="105.5797311"><ele>670.01</ele><time>2025-12-06T19:03:26.000Z</time></trkpt>
        <trkpt lat="28.7392237" lon="105.5796143"><ele>672.16</ele><time>2025-12-06T19:03:34.000Z</time></trkpt>
        <trkpt lat="28.7391988" lon="105.5795048"><ele>673.98</ele><time>2025-12-06T19:03:50.000Z</time></trkpt>
        <trkpt lat="28.7392013" lon="105.5793993"><ele>674.81</ele><time>2025-12-06T19:04:02.000Z</time></trkpt>
        <trkpt lat="28.7392307" lon="105.5793"><ele>674.59</ele><time>2025-12-06T19:04:22.000Z</time></trkpt>
        <trkpt lat="28.7392487" lon="105.5791976"><ele>673.86</ele><time>2025-12-06T19:04:42.000Z</time></trkpt>
        <trkpt lat="28.7392668" lon="105.5790898"><ele>672.93</ele><time>2025-12-06T19:04:54.000Z</time></trkpt>
        <trkpt lat="28.7392405" lon="105.5789723"><ele>671.67</ele><time>2025-12-06T19:05:18.000Z</time></trkpt>
        <trkpt lat="28.7392391" lon="105.5788653"><ele>669.92</ele><time>2025-12-06T19:05:32.000Z</time></trkpt>
        <trkpt lat="28.7391627" lon="105.5788617"><ele>668.1</ele><time>2025-12-06T19:05:48.000Z</time></trkpt>
        <trkpt lat="28.7390625" lon="105.5788869"><ele>665.61</ele><time>2025-12-06T19:05:58.000Z</time></trkpt>
        <trkpt lat="28.7389989" lon="105.5788342"><ele>662.98</ele><time>2025-12-06T19:06:06.000Z</time></trkpt>
        <trkpt lat="28.738971" lon="105.5787359"><ele>660.84</ele><time>2025-12-06T19:06:18.000Z</time></trkpt>
        <trkpt lat="28.7389195" lon="105.5786352"><ele>659.62</ele><time>2025-12-06T19:06:34.000Z</time></trkpt>
        <trkpt lat="28.738865" lon="105.5785421"><ele>659.44</ele><time>2025-12-06T19:06:42.000Z</time></trkpt>
        <trkpt lat="28.7387983" lon="105.5784525"><ele>659.42</ele><time>2025-12-06T19:06:52.000Z</time></trkpt>
        <trkpt lat="28.7387273" lon="105.5783698"><ele>659.93</ele><time>2025-12-06T19:07:04.000Z</time></trkpt>
        <trkpt lat="28.7386444" lon="105.5783161"><ele>661.08</ele><time>2025-12-06T19:07:16.000Z</time></trkpt>
        <trkpt lat="28.7385515" lon="105.5783052"><ele>662.85</ele><time>2025-12-06T19:07:26.000Z</time></trkpt>
        <trkpt lat="28.738461" lon="105.5783308"><ele>664.64</ele><time>2025-12-06T19:07:34.000Z</time></trkpt>
        <trkpt lat="28.7383812" lon="105.578295"><ele>665.7</ele><time>2025-12-06T19:07:44.000Z</time></trkpt>
        <trkpt lat="28.7383183" lon="105.5782093"><ele>666.39</ele><time>2025-12-06T19:07:54.000Z</time></trkpt>
        <trkpt lat="28.7382562" lon="105.5781155"><ele>666.43</ele><time>2025-12-06T19:08:08.000Z</time></trkpt>
        <trkpt lat="28.7381757" lon="105.5780485"><ele>667.15</ele><time>2025-12-06T19:08:26.000Z</time></trkpt>
        <trkpt lat="28.7380854" lon="105.5780136"><ele>669.19</ele><time>2025-12-06T19:08:42.000Z</time></trkpt>
        <trkpt lat="28.7379922" lon="105.5779814"><ele>671.65</ele><time>2025-12-06T19:08:52.000Z</time></trkpt>
        <trkpt lat="28.7378975" lon="105.5779645"><ele>673.13</ele><time>2025-12-06T19:09:02.000Z</time></trkpt>
        <trkpt lat="28.7378042" lon="105.5779234"><ele>673.94</ele><time>2025-12-06T19:09:18.000Z</time></trkpt>
        <trkpt lat="28.7377118" lon="105.577942"><ele>673.19</ele><time>2025-12-06T19:09:28.000Z</time></trkpt>
        <trkpt lat="28.7376162" lon="105.5779705"><ele>672.59</ele><time>2025-12-06T19:09:38.000Z</time></trkpt>
        <trkpt lat="28.7375193" lon="105.5779646"><ele>672.6</ele><time>2025-12-06T19:09:52.000Z</time></trkpt>
        <trkpt lat="28.7374235" lon="105.5779302"><ele>673.03</ele><time>2025-12-06T19:10:06.000Z</time></trkpt>
        <trkpt lat="28.7373245" lon="105.5778949"><ele>673.66</ele><time>2025-12-06T19:10:22.000Z</time></trkpt>
        <trkpt lat="28.7372293" lon="105.5778663"><ele>674.45</ele><time>2025-12-06T19:10:36.000Z</time></trkpt>
        <trkpt lat="28.737137" lon="105.5778475"><ele>674.09</ele><time>2025-12-06T19:11:06.000Z</time></trkpt>
        <trkpt lat="28.7370419" lon="105.5778374"><ele>672.33</ele><time>2025-12-06T19:11:18.000Z</time></trkpt>
        <trkpt lat="28.7369418" lon="105.5778539"><ele>669.99</ele><time>2025-12-06T19:11:34.000Z</time></trkpt>
        <trkpt lat="28.7368461" lon="105.5778645"><ele>667.16</ele><time>2025-12-06T19:11:46.000Z</time></trkpt>
        <trkpt lat="28.7367537" lon="105.5778359"><ele>665.11</ele><time>2025-12-06T19:12:00.000Z</time></trkpt>
        <trkpt lat="28.7367236" lon="105.5777473"><ele>664.2</ele><time>2025-12-06T19:12:14.000Z</time></trkpt>
        <trkpt lat="28.7367124" lon="105.5776373"><ele>662.83</ele><time>2025-12-06T19:12:26.000Z</time></trkpt>
        <trkpt lat="28.7366958" lon="105.5775125"><ele>661.82</ele><time>2025-12-06T19:12:40.000Z</time></trkpt>
        <trkpt lat="28.736668" lon="105.5774033"><ele>661.38</ele><time>2025-12-06T19:12:58.000Z</time></trkpt>
        <trkpt lat="28.7366525" lon="105.5772911"><ele>661.86</ele><time>2025-12-06T19:13:16.000Z</time></trkpt>
        <trkpt lat="28.7366826" lon="105.5771883"><ele>663.26</ele><time>2025-12-06T19:13:24.000Z</time></trkpt>
        <trkpt lat="28.7367501" lon="105.5771083"><ele>662.93</ele><time>2025-12-06T19:13:42.000Z</time></trkpt>
        <trkpt lat="28.736802" lon="105.5770162"><ele>661.8</ele><time>2025-12-06T19:13:54.000Z</time></trkpt>
        <trkpt lat="28.7368234" lon="105.5769058"><ele>660.85</ele><time>2025-12-06T19:14:08.000Z</time></trkpt>
        <trkpt lat="28.7368126" lon="105.5767849"><ele>659.75</ele><time>2025-12-06T19:14:20.000Z</time></trkpt>
        <trkpt lat="28.7367898" lon="105.5766724"><ele>659.17</ele><time>2025-12-06T19:14:28.000Z</time></trkpt>
        <trkpt lat="28.7367638" lon="105.5765515"><ele>658.93</ele><time>2025-12-06T19:14:40.000Z</time></trkpt>
        <trkpt lat="28.7367699" lon="105.5764427"><ele>658.36</ele><time>2025-12-06T19:14:50.000Z</time></trkpt>
        <trkpt lat="28.7368051" lon="105.5763375"><ele>658.12</ele><time>2025-12-06T19:15:02.000Z</time></trkpt>
        <trkpt lat="28.7368473" lon="105.5762271"><ele>658.54</ele><time>2025-12-06T19:15:12.000Z</time></trkpt>
        <trkpt lat="28.7369037" lon="105.5761244"><ele>658.61</ele><time>2025-12-06T19:15:22.000Z</time></trkpt>
        <trkpt lat="28.7369499" lon="105.5760245"><ele>658.26</ele><time>2025-12-06T19:15:34.000Z</time></trkpt>
        <trkpt lat="28.7369395" lon="105.575924"><ele>657.55</ele><time>2025-12-06T19:15:48.000Z</time></trkpt>
        <trkpt lat="28.7368617" lon="105.5758944"><ele>657.35</ele><time>2025-12-06T19:15:58.000Z</time></trkpt>
        <trkpt lat="28.7367561" lon="105.5759343"><ele>657.5</ele><time>2025-12-06T19:16:08.000Z</time></trkpt>
        <trkpt lat="28.7366417" lon="105.5759718"><ele>657.29</ele><time>2025-12-06T19:16:18.000Z</time></trkpt>
        <trkpt lat="28.736541" lon="105.5760176"><ele>657.03</ele><time>2025-12-06T19:16:26.000Z</time></trkpt>
        <trkpt lat="28.7364406" lon="105.5760534"><ele>656.85</ele><time>2025-12-06T19:16:42.000Z</time></trkpt>
        <trkpt lat="28.7363459" lon="105.5760697"><ele>657.17</ele><time>2025-12-06T19:16:52.000Z</time></trkpt>
        <trkpt lat="28.7362838" lon="105.5760771"><ele>657.79</ele><time>2025-12-06T19:17:06.000Z</time></trkpt>
        <trkpt lat="28.7362022" lon="105.5760921"><ele>658.01</ele><time>2025-12-06T19:17:16.000Z</time></trkpt>
        <trkpt lat="28.7361141" lon="105.5760706"><ele>658.82</ele><time>2025-12-06T19:17:26.000Z</time></trkpt>
        <trkpt lat="28.7360149" lon="105.5760509"><ele>658.73</ele><time>2025-12-06T19:17:38.000Z</time></trkpt>
        <trkpt lat="28.7359172" lon="105.576074"><ele>658.89</ele><time>2025-12-06T19:17:58.000Z</time></trkpt>
        <trkpt lat="28.735827" lon="105.576046"><ele>659.8</ele><time>2025-12-06T19:18:08.000Z</time></trkpt>
        <trkpt lat="28.7357362" lon="105.5759864"><ele>661.13</ele><time>2025-12-06T19:18:22.000Z</time></trkpt>
        <trkpt lat="28.7356549" lon="105.5759081"><ele>662.06</ele><time>2025-12-06T19:18:34.000Z</time></trkpt>
        <trkpt lat="28.7355883" lon="105.5758221"><ele>661.61</ele><time>2025-12-06T19:18:44.000Z</time></trkpt>
        <trkpt lat="28.735534" lon="105.5757207"><ele>660.23</ele><time>2025-12-06T19:18:56.000Z</time></trkpt>
        <trkpt lat="28.7354719" lon="105.5756378"><ele>658.75</ele><time>2025-12-06T19:19:10.000Z</time></trkpt>
        <trkpt lat="28.7354094" lon="105.5755623"><ele>656.71</ele><time>2025-12-06T19:19:32.000Z</time></trkpt>
        <trkpt lat="28.7353753" lon="105.5754693"><ele>653.82</ele><time>2025-12-06T19:19:44.000Z</time></trkpt>
        <trkpt lat="28.7353464" lon="105.5753558"><ele>651.79</ele><time>2025-12-06T19:19:54.000Z</time></trkpt>
        <trkpt lat="28.7353216" lon="105.5752367"><ele>649.99</ele><time>2025-12-06T19:20:06.000Z</time></trkpt>
        <trkpt lat="28.7352997" lon="105.5751183"><ele>648.49</ele><time>2025-12-06T19:20:18.000Z</time></trkpt>
        <trkpt lat="28.7352617" lon="105.5750063"><ele>647.2</ele><time>2025-12-06T19:20:28.000Z</time></trkpt>
        <trkpt lat="28.735211" lon="105.5749072"><ele>646.17</ele><time>2025-12-06T19:20:38.000Z</time></trkpt>
        <trkpt lat="28.7351825" lon="105.5747977"><ele>645.58</ele><time>2025-12-06T19:20:48.000Z</time></trkpt>
        <trkpt lat="28.735212" lon="105.5746875"><ele>644.69</ele><time>2025-12-06T19:21:00.000Z</time></trkpt>
        <trkpt lat="28.7352331" lon="105.5745634"><ele>643.01</ele><time>2025-12-06T19:21:10.000Z</time></trkpt>
        <trkpt lat="28.7352439" lon="105.5744393"><ele>641.76</ele><time>2025-12-06T19:21:22.000Z</time></trkpt>
        <trkpt lat="28.7352294" lon="105.5743186"><ele>641.35</ele><time>2025-12-06T19:21:30.000Z</time></trkpt>
        <trkpt lat="28.7351742" lon="105.5742159"><ele>641.5</ele><time>2025-12-06T19:21:40.000Z</time></trkpt>
        <trkpt lat="28.7350955" lon="105.5741373"><ele>641.24</ele><time>2025-12-06T19:21:50.000Z</time></trkpt>
        <trkpt lat="28.7350085" lon="105.5740791"><ele>641.4</ele><time>2025-12-06T19:22:04.000Z</time></trkpt>
        <trkpt lat="28.7349326" lon="105.5740077"><ele>640.92</ele><time>2025-12-06T19:22:14.000Z</time></trkpt>
        <trkpt lat="28.7348665" lon="105.5739169"><ele>640.14</ele><time>2025-12-06T19:22:28.000Z</time></trkpt>
        <trkpt lat="28.7347893" lon="105.5738461"><ele>639.43</ele><time>2025-12-06T19:22:52.000Z</time></trkpt>
        <trkpt lat="28.7347254" lon="105.5737698"><ele>638.39</ele><time>2025-12-06T19:23:08.000Z</time></trkpt>
        <trkpt lat="28.7346717" lon="105.5736833"><ele>637.23</ele><time>2025-12-06T19:23:20.000Z</time></trkpt>
        <trkpt lat="28.73459" lon="105.5736493"><ele>635.24</ele><time>2025-12-06T19:24:02.000Z</time></trkpt>
        <trkpt lat="28.7344972" lon="105.5736639"><ele>634.19</ele><time>2025-12-06T19:24:24.000Z</time></trkpt>
        <trkpt lat="28.7344177" lon="105.5737338"><ele>633.46</ele><time>2025-12-06T19:24:44.000Z</time></trkpt>
        <trkpt lat="28.7343356" lon="105.5737972"><ele>632.92</ele><time>2025-12-06T19:24:58.000Z</time></trkpt>
        <trkpt lat="28.7342624" lon="105.573882"><ele>632.01</ele><time>2025-12-06T19:25:10.000Z</time></trkpt>
        <trkpt lat="28.7342" lon="105.5739696"><ele>630.8</ele><time>2025-12-06T19:25:20.000Z</time></trkpt>
        <trkpt lat="28.7341287" lon="105.574037"><ele>629.47</ele><time>2025-12-06T19:25:32.000Z</time></trkpt>
        <trkpt lat="28.7340407" lon="105.5740869"><ele>627.42</ele><time>2025-12-06T19:25:46.000Z</time></trkpt>
        <trkpt lat="28.7339404" lon="105.5741044"><ele>624.48</ele><time>2025-12-06T19:25:56.000Z</time></trkpt>
        <trkpt lat="28.7338303" lon="105.5741162"><ele>622.38</ele><time>2025-12-06T19:26:12.000Z</time></trkpt>
        <trkpt lat="28.7337316" lon="105.5741045"><ele>620.93</ele><time>2025-12-06T19:26:20.000Z</time></trkpt>
        <trkpt lat="28.7336482" lon="105.5740482"><ele>619.75</ele><time>2025-12-06T19:26:32.000Z</time></trkpt>
        <trkpt lat="28.7335692" lon="105.5739778"><ele>618.66</ele><time>2025-12-06T19:26:42.000Z</time></trkpt>
        <trkpt lat="28.7334884" lon="105.573912"><ele>618.07</ele><time>2025-12-06T19:26:50.000Z</time></trkpt>
        <trkpt lat="28.7334025" lon="105.5738694"><ele>617.61</ele><time>2025-12-06T19:27:00.000Z</time></trkpt>
        <trkpt lat="28.7333082" lon="105.5738514"><ele>616.7</ele><time>2025-12-06T19:27:22.000Z</time></trkpt>
        <trkpt lat="28.733211" lon="105.5738656"><ele>615.02</ele><time>2025-12-06T19:27:30.000Z</time></trkpt>
        <trkpt lat="28.733117" lon="105.5738936"><ele>613.64</ele><time>2025-12-06T19:27:40.000Z</time></trkpt>
        <trkpt lat="28.7330347" lon="105.5739465"><ele>611.69</ele><time>2025-12-06T19:27:56.000Z</time></trkpt>
        <trkpt lat="28.7329717" lon="105.5740326"><ele>610.14</ele><time>2025-12-06T19:28:04.000Z</time></trkpt>
        <trkpt lat="28.7328988" lon="105.5741221"><ele>609.31</ele><time>2025-12-06T19:28:14.000Z</time></trkpt>
        <trkpt lat="28.732816" lon="105.5741746"><ele>608.19</ele><time>2025-12-06T19:28:26.000Z</time></trkpt>
        <trkpt lat="28.7327181" lon="105.5741667"><ele>605.44</ele><time>2025-12-06T19:28:40.000Z</time></trkpt>
        <trkpt lat="28.7326163" lon="105.5741364"><ele>601.68</ele><time>2025-12-06T19:28:54.000Z</time></trkpt>
        <trkpt lat="28.7325067" lon="105.5741069"><ele>597.69</ele><time>2025-12-06T19:29:06.000Z</time></trkpt>
        <trkpt lat="28.7324088" lon="105.5740684"><ele>594.47</ele><time>2025-12-06T19:29:16.000Z</time></trkpt>
        <trkpt lat="28.7323235" lon="105.5740133"><ele>592.42</ele><time>2025-12-06T19:29:24.000Z</time></trkpt>
        <trkpt lat="28.7322414" lon="105.5739397"><ele>591.2</ele><time>2025-12-06T19:29:34.000Z</time></trkpt>
        <trkpt lat="28.7321459" lon="105.5738899"><ele>590.26</ele><time>2025-12-06T19:29:44.000Z</time></trkpt>
        <trkpt lat="28.7320761" lon="105.5738493"><ele>589.59</ele><time>2025-12-06T19:30:02.000Z</time></trkpt>
        <trkpt lat="28.7319917" lon="105.5737917"><ele>588.26</ele><time>2025-12-06T19:31:49.000Z</time></trkpt>
        <trkpt lat="28.7319283" lon="105.5737067"><ele>586.69</ele><time>2025-12-06T19:32:31.000Z</time></trkpt>
        <trkpt lat="28.7318749" lon="105.5736033"><ele>585.27</ele><time>2025-12-06T19:32:41.000Z</time></trkpt>
        <trkpt lat="28.7318039" lon="105.5735148"><ele>583.78</ele><time>2025-12-06T19:32:53.000Z</time></trkpt>
        <trkpt lat="28.7317136" lon="105.5734445"><ele>581.98</ele><time>2025-12-06T19:33:03.000Z</time></trkpt>
        <trkpt lat="28.7316168" lon="105.5733994"><ele>580.7</ele><time>2025-12-06T19:33:13.000Z</time></trkpt>
        <trkpt lat="28.7315177" lon="105.5733662"><ele>579.97</ele><time>2025-12-06T19:33:23.000Z</time></trkpt>
        <trkpt lat="28.7314164" lon="105.5733416"><ele>579.9</ele><time>2025-12-06T19:33:33.000Z</time></trkpt>
        <trkpt lat="28.7313213" lon="105.5733222"><ele>579.94</ele><time>2025-12-06T19:33:43.000Z</time></trkpt>
        <trkpt lat="28.7312176" lon="105.573322"><ele>579.62</ele><time>2025-12-06T19:33:55.000Z</time></trkpt>
        <trkpt lat="28.7311308" lon="105.5733667"><ele>578.62</ele><time>2025-12-06T19:34:07.000Z</time></trkpt>
        <trkpt lat="28.7310756" lon="105.5734637"><ele>577.45</ele><time>2025-12-06T19:34:17.000Z</time></trkpt>
        <trkpt lat="28.7309938" lon="105.5735265"><ele>576.14</ele><time>2025-12-06T19:34:31.000Z</time></trkpt>
        <trkpt lat="28.7309038" lon="105.5735496"><ele>574.79</ele><time>2025-12-06T19:34:45.000Z</time></trkpt>
        <trkpt lat="28.7308049" lon="105.5735176"><ele>573.42</ele><time>2025-12-06T19:34:57.000Z</time></trkpt>
        <trkpt lat="28.7307173" lon="105.5734522"><ele>571.99</ele><time>2025-12-06T19:35:11.000Z</time></trkpt>
        <trkpt lat="28.730637" lon="105.5733699"><ele>570.4</ele><time>2025-12-06T19:35:27.000Z</time></trkpt>
        <trkpt lat="28.7305505" lon="105.573318"><ele>568.59</ele><time>2025-12-06T19:35:41.000Z</time></trkpt>
        <trkpt lat="28.7304587" lon="105.5732877"><ele>567.35</ele><time>2025-12-06T19:35:57.000Z</time></trkpt>
        <trkpt lat="28.7303587" lon="105.5732877"><ele>566.68</ele><time>2025-12-06T19:36:25.000Z</time></trkpt>
        <trkpt lat="28.7303213" lon="105.5732125"><ele>565.74</ele><time>2025-12-06T19:36:39.000Z</time></trkpt>
        <trkpt lat="28.7303499" lon="105.5731188"><ele>565.55</ele><time>2025-12-06T19:36:53.000Z</time></trkpt>
        <trkpt lat="28.7304421" lon="105.5730712"><ele>565.75</ele><time>2025-12-06T19:37:27.000Z</time></trkpt>
        <trkpt lat="28.7305473" lon="105.5730632"><ele>566.03</ele><time>2025-12-06T19:37:51.000Z</time></trkpt>
        <trkpt lat="28.7305056" lon="105.5730596"><ele>565.63</ele><time>2025-12-06T19:38:35.000Z</time></trkpt>
        <trkpt lat="28.730499" lon="105.5731425"><ele>564.88</ele><time>2025-12-06T19:38:57.000Z</time></trkpt>
        <trkpt lat="28.7305624" lon="105.5731514"><ele>564.81</ele><time>2025-12-06T19:39:23.000Z</time></trkpt>
        <trkpt lat="28.7306275" lon="105.5730887"><ele>564.93</ele><time>2025-12-06T19:39:39.000Z</time></trkpt>
        <trkpt lat="28.7306717" lon="105.5729567"><ele>565.35</ele><time>2025-12-06T19:41:55.000Z</time></trkpt>
        <trkpt lat="28.7306433" lon="105.572855"><ele>565.11</ele><time>2025-12-06T19:42:11.000Z</time></trkpt>
        <trkpt lat="28.7305656" lon="105.5727815"><ele>565.49</ele><time>2025-12-06T19:42:23.000Z</time></trkpt>
        <trkpt lat="28.7304946" lon="105.5727079"><ele>565.8</ele><time>2025-12-06T19:42:33.000Z</time></trkpt>
        <trkpt lat="28.7304393" lon="105.5726244"><ele>565.24</ele><time>2025-12-06T19:42:47.000Z</time></trkpt>
        <trkpt lat="28.7304425" lon="105.5725181"><ele>563.2</ele><time>2025-12-06T19:42:59.000Z</time></trkpt>
        <trkpt lat="28.7305195" lon="105.5724863"><ele>559.63</ele><time>2025-12-06T19:43:33.000Z</time></trkpt>
        <trkpt lat="28.7306251" lon="105.572458"><ele>555.87</ele><time>2025-12-06T19:43:47.000Z</time></trkpt>
        <trkpt lat="28.7307314" lon="105.5724577"><ele>554.47</ele><time>2025-12-06T19:44:03.000Z</time></trkpt>
        <trkpt lat="28.7308309" lon="105.5724206"><ele>554.31</ele><time>2025-12-06T19:44:15.000Z</time></trkpt>
        <trkpt lat="28.730924" lon="105.5723624"><ele>554.61</ele><time>2025-12-06T19:44:53.000Z</time></trkpt>
        <trkpt lat="28.7310076" lon="105.5722934"><ele>554.82</ele><time>2025-12-06T19:45:05.000Z</time></trkpt>
        <trkpt lat="28.7310989" lon="105.5722595"><ele>554.98</ele><time>2025-12-06T19:45:19.000Z</time></trkpt>
        <trkpt lat="28.7311896" lon="105.5722774"><ele>555.42</ele><time>2025-12-06T19:45:29.000Z</time></trkpt>
        <trkpt lat="28.7312724" lon="105.572328"><ele>555.45</ele><time>2025-12-06T19:45:49.000Z</time></trkpt>
        <trkpt lat="28.7313472" lon="105.572401"><ele>554.23</ele><time>2025-12-06T19:46:11.000Z</time></trkpt>
        <trkpt lat="28.7314221" lon="105.5724696"><ele>551.81</ele><time>2025-12-06T19:46:29.000Z</time></trkpt>
        <trkpt lat="28.7314976" lon="105.5725474"><ele>549.78</ele><time>2025-12-06T19:46:53.000Z</time></trkpt>
        <trkpt lat="28.7315661" lon="105.5726245"><ele>547.29</ele><time>2025-12-06T19:47:09.000Z</time></trkpt>
        <trkpt lat="28.7316122" lon="105.5727152"><ele>545.62</ele><time>2025-12-06T19:47:57.000Z</time></trkpt>
        <trkpt lat="28.7316944" lon="105.5727387"><ele>543.33</ele><time>2025-12-06T19:48:39.000Z</time></trkpt>
        <trkpt lat="28.7317312" lon="105.5726616"><ele>543.45</ele><time>2025-12-06T19:48:59.000Z</time></trkpt>
        <trkpt lat="28.7317251" lon="105.5725458"><ele>543.99</ele><time>2025-12-06T19:49:15.000Z</time></trkpt>
        <trkpt lat="28.731724" lon="105.5724242"><ele>544.59</ele><time>2025-12-06T19:49:37.000Z</time></trkpt>
        <trkpt lat="28.7317243" lon="105.572309"><ele>544.9</ele><time>2025-12-06T19:50:35.000Z</time></trkpt>
        <trkpt lat="28.7317955" lon="105.5722634"><ele>543.95</ele><time>2025-12-06T19:50:57.000Z</time></trkpt>
        <trkpt lat="28.7318883" lon="105.5722623"><ele>543.16</ele><time>2025-12-06T19:51:09.000Z</time></trkpt>
        <trkpt lat="28.7319842" lon="105.5723006"><ele>542.79</ele><time>2025-12-06T19:51:23.000Z</time></trkpt>
        <trkpt lat="28.7320807" lon="105.5723194"><ele>542.58</ele><time>2025-12-06T19:51:41.000Z</time></trkpt>
        <trkpt lat="28.7321782" lon="105.5723253"><ele>543.36</ele><time>2025-12-06T19:52:01.000Z</time></trkpt>
        <trkpt lat="28.7322738" lon="105.5723543"><ele>544.11</ele><time>2025-12-06T19:52:27.000Z</time></trkpt>
        <trkpt lat="28.7323593" lon="105.5723979"><ele>543.98</ele><time>2025-12-06T19:52:39.000Z</time></trkpt>
        <trkpt lat="28.732436" lon="105.5724769"><ele>543.47</ele><time>2025-12-06T19:53:01.000Z</time></trkpt>
        <trkpt lat="28.7325212" lon="105.5724924"><ele>544.04</ele><time>2025-12-06T19:53:13.000Z</time></trkpt>
        <trkpt lat="28.7326001" lon="105.5724493"><ele>545.66</ele><time>2025-12-06T19:53:53.000Z</time></trkpt>
        <trkpt lat="28.7326329" lon="105.5723442"><ele>547.14</ele><time>2025-12-06T19:54:17.000Z</time></trkpt>
        <trkpt lat="28.7326065" lon="105.5722359"><ele>547.94</ele><time>2025-12-06T19:54:39.000Z</time></trkpt>
        <trkpt lat="28.7326025" lon="105.5721246"><ele>548.78</ele><time>2025-12-06T19:55:27.000Z</time></trkpt>
        <trkpt lat="28.7326467" lon="105.5720117"><ele>549.39</ele><time>2025-12-06T19:59:49.000Z</time></trkpt>
        <trkpt lat="28.7327267" lon="105.5719633"><ele>551.93</ele><time>2025-12-06T20:00:39.000Z</time></trkpt>
        <trkpt lat="28.7328123" lon="105.5718953"><ele>552.44</ele><time>2025-12-06T20:01:25.000Z</time></trkpt>
        <trkpt lat="28.7329167" lon="105.5717883"><ele>553.45</ele><time>2025-12-06T20:02:31.000Z</time></trkpt>
        <trkpt lat="28.7330083" lon="105.5717683"><ele>554.76</ele><time>2025-12-06T20:02:51.000Z</time></trkpt>
        <trkpt lat="28.7330831" lon="105.5716891"><ele>556.2</ele><time>2025-12-06T20:03:29.000Z</time></trkpt>
        <trkpt lat="28.7330982" lon="105.5715865"><ele>558.09</ele><time>2025-12-06T20:03:45.000Z</time></trkpt>
        <trkpt lat="28.7331235" lon="105.5714851"><ele>559.77</ele><time>2025-12-06T20:03:59.000Z</time></trkpt>
        <trkpt lat="28.7331531" lon="105.5713681"><ele>561.81</ele><time>2025-12-06T20:04:09.000Z</time></trkpt>
        <trkpt lat="28.7332258" lon="105.5712917"><ele>563.57</ele><time>2025-12-06T20:04:57.000Z</time></trkpt>
        <trkpt lat="28.7333134" lon="105.5712218"><ele>562.72</ele><time>2025-12-06T20:05:13.000Z</time></trkpt>
        <trkpt lat="28.7333868" lon="105.5711404"><ele>561.59</ele><time>2025-12-06T20:05:29.000Z</time></trkpt>
        <trkpt lat="28.7334683" lon="105.5710724"><ele>561.12</ele><time>2025-12-06T20:05:51.000Z</time></trkpt>
        <trkpt lat="28.7335536" lon="105.5710282"><ele>559.95</ele><time>2025-12-06T20:06:09.000Z</time></trkpt>
        <trkpt lat="28.7336335" lon="105.5710646"><ele>558.9</ele><time>2025-12-06T20:06:33.000Z</time></trkpt>
        <trkpt lat="28.7336934" lon="105.5711538"><ele>557.74</ele><time>2025-12-06T20:06:43.000Z</time></trkpt>
        <trkpt lat="28.7337585" lon="105.5712408"><ele>557.2</ele><time>2025-12-06T20:06:57.000Z</time></trkpt>
        <trkpt lat="28.7338254" lon="105.5713375"><ele>556.34</ele><time>2025-12-06T20:07:11.000Z</time></trkpt>
        <trkpt lat="28.7338882" lon="105.5714223"><ele>555.59</ele><time>2025-12-06T20:07:21.000Z</time></trkpt>
        <trkpt lat="28.7339647" lon="105.5714831"><ele>555.17</ele><time>2025-12-06T20:07:53.000Z</time></trkpt>
        <trkpt lat="28.73402" lon="105.5715661"><ele>554.84</ele><time>2025-12-06T20:08:05.000Z</time></trkpt>
        <trkpt lat="28.7341034" lon="105.5716069"><ele>554.86</ele><time>2025-12-06T20:08:51.000Z</time></trkpt>
        <trkpt lat="28.7341728" lon="105.5716705"><ele>555.48</ele><time>2025-12-06T20:09:07.000Z</time></trkpt>
        <trkpt lat="28.7342498" lon="105.571723"><ele>556.22</ele><time>2025-12-06T20:09:27.000Z</time></trkpt>
        <trkpt lat="28.7343322" lon="105.5717838"><ele>556.86</ele><time>2025-12-06T20:10:23.000Z</time></trkpt>
        <trkpt lat="28.7344125" lon="105.5718445"><ele>557.09</ele><time>2025-12-06T20:10:45.000Z</time></trkpt>
        <trkpt lat="28.7344967" lon="105.5719048"><ele>557.44</ele><time>2025-12-06T20:11:07.000Z</time></trkpt>
        <trkpt lat="28.734562" lon="105.5719862"><ele>558.58</ele><time>2025-12-06T20:11:49.000Z</time></trkpt>
        <trkpt lat="28.734639" lon="105.5720491"><ele>559.67</ele><time>2025-12-06T20:12:09.000Z</time></trkpt>
        <trkpt lat="28.7347374" lon="105.5720801"><ele>560.63</ele><time>2025-12-06T20:12:37.000Z</time></trkpt>
        <trkpt lat="28.73484" lon="105.57208"><ele>562.64</ele><time>2025-12-06T20:15:33.000Z</time></trkpt>
        <trkpt lat="28.7349367" lon="105.5720717"><ele>563.95</ele><time>2025-12-06T20:15:47.000Z</time></trkpt>
        <trkpt lat="28.7350467" lon="105.5721583"><ele>563.8</ele><time>2025-12-06T20:17:53.000Z</time></trkpt>
        <trkpt lat="28.735145" lon="105.57217"><ele>566.25</ele><time>2025-12-06T20:18:45.000Z</time></trkpt>
        <trkpt lat="28.7352433" lon="105.5721633"><ele>568.55</ele><time>2025-12-06T20:19:07.000Z</time></trkpt>
        <trkpt lat="28.7353339" lon="105.5722062"><ele>569.69</ele><time>2025-12-06T20:19:19.000Z</time></trkpt>
        <trkpt lat="28.7354171" lon="105.5722531"><ele>569.74</ele><time>2025-12-06T20:19:41.000Z</time></trkpt>
        <trkpt lat="28.7355166" lon="105.572244"><ele>569.85</ele><time>2025-12-06T20:19:53.000Z</time></trkpt>
        <trkpt lat="28.7356064" lon="105.5722067"><ele>570.04</ele><time>2025-12-06T20:20:13.000Z</time></trkpt>
        <trkpt lat="28.7356909" lon="105.572144"><ele>571.32</ele><time>2025-12-06T20:20:33.000Z</time></trkpt>
        <trkpt lat="28.7357786" lon="105.5721511"><ele>572</ele><time>2025-12-06T20:20:45.000Z</time></trkpt>
        <trkpt lat="28.7358729" lon="105.572149"><ele>573.16</ele><time>2025-12-06T20:20:59.000Z</time></trkpt>
        <trkpt lat="28.735976" lon="105.572145"><ele>574.3</ele><time>2025-12-06T20:21:13.000Z</time></trkpt>
        <trkpt lat="28.7360744" lon="105.5721709"><ele>575.2</ele><time>2025-12-06T20:21:25.000Z</time></trkpt>
        <trkpt lat="28.7361592" lon="105.5722174"><ele>575.89</ele><time>2025-12-06T20:21:43.000Z</time></trkpt>
        <trkpt lat="28.7362464" lon="105.5722535"><ele>576.93</ele><time>2025-12-06T20:21:55.000Z</time></trkpt>
        <trkpt lat="28.736339" lon="105.5723137"><ele>577.6</ele><time>2025-12-06T20:22:11.000Z</time></trkpt>
        <trkpt lat="28.7364237" lon="105.5723834"><ele>577.9</ele><time>2025-12-06T20:22:23.000Z</time></trkpt>
        <trkpt lat="28.7365129" lon="105.5724274"><ele>578.16</ele><time>2025-12-06T20:22:35.000Z</time></trkpt>
        <trkpt lat="28.7366033" lon="105.5724267"><ele>579.08</ele><time>2025-12-06T20:23:45.000Z</time></trkpt>
        <trkpt lat="28.7366933" lon="105.5724467"><ele>580.12</ele><time>2025-12-06T20:23:59.000Z</time></trkpt>
        <trkpt lat="28.736789" lon="105.5724568"><ele>580.41</ele><time>2025-12-06T20:24:21.000Z</time></trkpt>
        <trkpt lat="28.7368818" lon="105.5724626"><ele>580.79</ele><time>2025-12-06T20:24:31.000Z</time></trkpt>
        <trkpt lat="28.7369824" lon="105.572467"><ele>581.31</ele><time>2025-12-06T20:25:05.000Z</time></trkpt>
        <trkpt lat="28.7370785" lon="105.5724949"><ele>582.34</ele><time>2025-12-06T20:25:23.000Z</time></trkpt>
        <trkpt lat="28.7371412" lon="105.5725706"><ele>583.01</ele><time>2025-12-06T20:25:49.000Z</time></trkpt>
        <trkpt lat="28.73728" lon="105.5725517"><ele>585.07</ele><time>2025-12-06T20:26:55.000Z</time></trkpt>
        <trkpt lat="28.7373333" lon="105.57264"><ele>586.29</ele><time>2025-12-06T20:27:51.000Z</time></trkpt>
        <trkpt lat="28.7374036" lon="105.5725901"><ele>590.04</ele><time>2025-12-06T20:28:21.000Z</time></trkpt>
        <trkpt lat="28.7374897" lon="105.5725402"><ele>595.35</ele><time>2025-12-06T20:29:15.000Z</time></trkpt>
        <trkpt lat="28.7375733" lon="105.5724833"><ele>598.73</ele><time>2025-12-06T20:29:37.000Z</time></trkpt>
        <trkpt lat="28.7376692" lon="105.5724508"><ele>601.08</ele><time>2025-12-06T20:29:49.000Z</time></trkpt>
        <trkpt lat="28.7377614" lon="105.5724117"><ele>602.34</ele><time>2025-12-06T20:29:59.000Z</time></trkpt>
        <trkpt lat="28.7378577" lon="105.5724026"><ele>603.44</ele><time>2025-12-06T20:30:09.000Z</time></trkpt>
        <trkpt lat="28.73795" lon="105.5724249"><ele>604.8</ele><time>2025-12-06T20:30:17.000Z</time></trkpt>
        <trkpt lat="28.7380456" lon="105.5724407"><ele>605.87</ele><time>2025-12-06T20:30:29.000Z</time></trkpt>
        <trkpt lat="28.7381098" lon="105.5723754"><ele>606.49</ele><time>2025-12-06T20:30:41.000Z</time></trkpt>
        <trkpt lat="28.7381474" lon="105.5722719"><ele>607.61</ele><time>2025-12-06T20:31:03.000Z</time></trkpt>
        <trkpt lat="28.7381868" lon="105.5721696"><ele>608.64</ele><time>2025-12-06T20:32:03.000Z</time></trkpt>
        <trkpt lat="28.7382581" lon="105.5720946"><ele>610.99</ele><time>2025-12-06T20:32:23.000Z</time></trkpt>
        <trkpt lat="28.7383434" lon="105.572014"><ele>613.62</ele><time>2025-12-06T20:32:35.000Z</time></trkpt>
        <trkpt lat="28.7384201" lon="105.5719361"><ele>615.98</ele><time>2025-12-06T20:32:49.000Z</time></trkpt>
        <trkpt lat="28.738466" lon="105.5718293"><ele>618.74</ele><time>2025-12-06T20:33:17.000Z</time></trkpt>
        <trkpt lat="28.7385393" lon="105.5717556"><ele>621</ele><time>2025-12-06T20:33:31.000Z</time></trkpt>
        <trkpt lat="28.7386328" lon="105.5716906"><ele>622.89</ele><time>2025-12-06T20:33:43.000Z</time></trkpt>
        <trkpt lat="28.7387193" lon="105.5716315"><ele>624.83</ele><time>2025-12-06T20:33:53.000Z</time></trkpt>
        <trkpt lat="28.7388017" lon="105.5715773"><ele>626.45</ele><time>2025-12-06T20:34:01.000Z</time></trkpt>
        <trkpt lat="28.7388711" lon="105.5714965"><ele>627.72</ele><time>2025-12-06T20:34:11.000Z</time></trkpt>
        <trkpt lat="28.7389406" lon="105.5714228"><ele>628.23</ele><time>2025-12-06T20:34:19.000Z</time></trkpt>
        <trkpt lat="28.739026" lon="105.5713527"><ele>628.13</ele><time>2025-12-06T20:34:29.000Z</time></trkpt>
        <trkpt lat="28.739115" lon="105.5712917"><ele>627.73</ele><time>2025-12-06T20:34:39.000Z</time></trkpt>
        <trkpt lat="28.7391709" lon="105.5711938"><ele>627.67</ele><time>2025-12-06T20:35:29.000Z</time></trkpt>
        <trkpt lat="28.7392404" lon="105.5711169"><ele>627.77</ele><time>2025-12-06T20:35:39.000Z</time></trkpt>
        <trkpt lat="28.7393276" lon="105.5710257"><ele>627.96</ele><time>2025-12-06T20:36:11.000Z</time></trkpt>
        <trkpt lat="28.7393701" lon="105.5709026"><ele>627.11</ele><time>2025-12-06T20:36:21.000Z</time></trkpt>
        <trkpt lat="28.7394216" lon="105.5708012"><ele>626.12</ele><time>2025-12-06T20:36:33.000Z</time></trkpt>
        <trkpt lat="28.7394771" lon="105.5707073"><ele>625.42</ele><time>2025-12-06T20:36:43.000Z</time></trkpt>
        <trkpt lat="28.7395208" lon="105.5706348"><ele>624.08</ele><time>2025-12-06T20:36:59.000Z</time></trkpt>
        <trkpt lat="28.7396003" lon="105.5705872"><ele>622.24</ele><time>2025-12-06T20:37:23.000Z</time></trkpt>
        <trkpt lat="28.7396648" lon="105.5705173"><ele>620.89</ele><time>2025-12-06T20:37:37.000Z</time></trkpt>
        <trkpt lat="28.7396935" lon="105.570402"><ele>619.47</ele><time>2025-12-06T20:38:23.000Z</time></trkpt>
        <trkpt lat="28.7396776" lon="105.5702853"><ele>618.75</ele><time>2025-12-06T20:38:37.000Z</time></trkpt>
        <trkpt lat="28.7396538" lon="105.5701631"><ele>619.2</ele><time>2025-12-06T20:38:49.000Z</time></trkpt>
        <trkpt lat="28.739653" lon="105.5700453"><ele>620.28</ele><time>2025-12-06T20:38:59.000Z</time></trkpt>
        <trkpt lat="28.739683" lon="105.5699276"><ele>620.59</ele><time>2025-12-06T20:39:09.000Z</time></trkpt>
        <trkpt lat="28.7397454" lon="105.5698317"><ele>619.91</ele><time>2025-12-06T20:39:21.000Z</time></trkpt>
        <trkpt lat="28.7397441" lon="105.5697275"><ele>618.48</ele><time>2025-12-06T20:39:43.000Z</time></trkpt>
        <trkpt lat="28.7396818" lon="105.569643"><ele>617.89</ele><time>2025-12-06T20:39:55.000Z</time></trkpt>
        <trkpt lat="28.739598" lon="105.5695819"><ele>617.55</ele><time>2025-12-06T20:40:05.000Z</time></trkpt>
        <trkpt lat="28.73951" lon="105.5694583"><ele>617.14</ele><time>2025-12-06T20:41:07.000Z</time></trkpt>
        <trkpt lat="28.73948" lon="105.5693617"><ele>618.41</ele><time>2025-12-06T20:41:15.000Z</time></trkpt>
        <trkpt lat="28.7394754" lon="105.5692763"><ele>618.54</ele><time>2025-12-06T20:41:33.000Z</time></trkpt>
        <trkpt lat="28.7394675" lon="105.5691749"><ele>617.57</ele><time>2025-12-06T20:41:49.000Z</time></trkpt>
        <trkpt lat="28.7394375" lon="105.5690685"><ele>616.38</ele><time>2025-12-06T20:41:57.000Z</time></trkpt>
        <trkpt lat="28.739408" lon="105.568952"><ele>615.57</ele><time>2025-12-06T20:42:05.000Z</time></trkpt>
        <trkpt lat="28.7394084" lon="105.5688422"><ele>614.59</ele><time>2025-12-06T20:42:17.000Z</time></trkpt>
        <trkpt lat="28.7393964" lon="105.5687384"><ele>613.18</ele><time>2025-12-06T20:42:29.000Z</time></trkpt>
        <trkpt lat="28.7393822" lon="105.5686254"><ele>612.03</ele><time>2025-12-06T20:42:39.000Z</time></trkpt>
        <trkpt lat="28.7394073" lon="105.5685265"><ele>611.07</ele><time>2025-12-06T20:42:49.000Z</time></trkpt>
        <trkpt lat="28.7394856" lon="105.5684593"><ele>610.09</ele><time>2025-12-06T20:42:59.000Z</time></trkpt>
        <trkpt lat="28.7395838" lon="105.5683994"><ele>608.85</ele><time>2025-12-06T20:43:09.000Z</time></trkpt>
        <trkpt lat="28.7396652" lon="105.5683175"><ele>607.88</ele><time>2025-12-06T20:43:19.000Z</time></trkpt>
        <trkpt lat="28.7397235" lon="105.5682274"><ele>607.37</ele><time>2025-12-06T20:43:27.000Z</time></trkpt>
        <trkpt lat="28.7397937" lon="105.5681522"><ele>607.26</ele><time>2025-12-06T20:43:37.000Z</time></trkpt>
        <trkpt lat="28.739868" lon="105.5680719"><ele>608.09</ele><time>2025-12-06T20:43:51.000Z</time></trkpt>
        <trkpt lat="28.7399235" lon="105.5679755"><ele>609.86</ele><time>2025-12-06T20:44:01.000Z</time></trkpt>
        <trkpt lat="28.7399618" lon="105.5678682"><ele>612.24</ele><time>2025-12-06T20:44:11.000Z</time></trkpt>
        <trkpt lat="28.7399833" lon="105.5677615"><ele>614.81</ele><time>2025-12-06T20:44:21.000Z</time></trkpt>
        <trkpt lat="28.740009" lon="105.567655"><ele>617.04</ele><time>2025-12-06T20:44:31.000Z</time></trkpt>
        <trkpt lat="28.7400715" lon="105.5675866"><ele>618.27</ele><time>2025-12-06T20:44:41.000Z</time></trkpt>
        <trkpt lat="28.740152" lon="105.5675236"><ele>619.06</ele><time>2025-12-06T20:44:57.000Z</time></trkpt>
        <trkpt lat="28.7401911" lon="105.5674344"><ele>619.33</ele><time>2025-12-06T20:45:21.000Z</time></trkpt>
        <trkpt lat="28.740203" lon="105.567328"><ele>621.6</ele><time>2025-12-06T20:45:51.000Z</time></trkpt>
        <trkpt lat="28.7402377" lon="105.5672286"><ele>627.92</ele><time>2025-12-06T20:46:25.000Z</time></trkpt>
        <trkpt lat="28.7402566" lon="105.5671243"><ele>632.04</ele><time>2025-12-06T20:47:03.000Z</time></trkpt>
        <trkpt lat="28.7402921" lon="105.5670273"><ele>635.38</ele><time>2025-12-06T20:47:19.000Z</time></trkpt>
        <trkpt lat="28.7403295" lon="105.5669322"><ele>638.06</ele><time>2025-12-06T20:47:31.000Z</time></trkpt>
        <trkpt lat="28.7403834" lon="105.5668463"><ele>640.05</ele><time>2025-12-06T20:47:43.000Z</time></trkpt>
        <trkpt lat="28.7403834" lon="105.5668463"><ele>640.05</ele><time>2025-12-06T20:47:50.000Z</time></trkpt>
      </trkseg>
  </trk>
</gpx>